Time;durP1;ratioP1;P1;durP2;ratioP2;P2;SDS_P1;SDS_P2;PMS_P1;PMS_P2;Temp;Humidity;BMP_temperature;BMP_pressure;BME280_temperature;BME280_humidity;BME280_pressure;Samples;Min_cycle;Max_cycle;Signal;HPM_P1;HPM_P2
2023/03/27 03:02:20;;;;;;;6.00;3.73;;;5.90;88.50;;;;;;5245803;23;20502;-69
2023/03/27 03:04:55;;;;;;;7.53;3.33;;;5.80;88.20;;;;;;4979357;28;20442;-69
2023/03/27 03:07:25;;;;;;;4.57;2.70;;;5.80;88.50;;;;;;4978943;28;20414;-69
2023/03/27 03:09:52;;;;;;;5.10;2.97;;;5.70;88.50;;;;;;4978728;28;20965;-68
2023/03/27 03:12:20;;;;;;;5.47;3.73;;;5.50;87.70;;;;;;4978688;28;20458;-69
2023/03/27 03:17:17;;;;;;;4.13;2.53;;;5.40;87.40;;;;;;4998671;23;20549;-73
2023/03/27 03:19:44;;;;;;;3.90;2.40;;;5.20;87.10;;;;;;4977023;28;20474;-73
2023/03/27 03:22:11;;;;;;;5.40;2.60;;;5.10;86.80;;;;;;4977040;28;20442;-73
2023/03/27 03:24:40;;;;;;;3.77;2.20;;;4.90;86.90;;;;;;4976932;28;20462;-73
2023/03/27 03:27:07;;;;;;;4.80;3.10;;;4.90;86.70;;;;;;4976839;28;20466;-73
2023/03/27 03:29:35;;;;;;;4.30;2.33;;;4.80;86.70;;;;;;4976852;28;20468;-73
2023/03/27 03:32:02;;;;;;;4.20;2.43;;;4.70;86.20;;;;;;4976826;28;20537;-73
2023/03/27 03:34:32;;;;;;;4.10;2.03;;;4.60;85.90;;;;;;4976688;28;20495;-72
2023/03/27 03:36:59;;;;;;;7.30;2.20;;;4.60;86.20;;;;;;4976655;28;20525;-73
2023/03/27 03:39:25;;;;;;;4.80;2.60;;;4.70;86.10;;;;;;4976699;28;20450;-73
2023/03/27 03:41:52;;;;;;;5.00;2.13;;;4.70;86.50;;;;;;4976646;28;20458;-73
2023/03/27 03:44:19;;;;;;;3.67;2.30;;;4.70;86.00;;;;;;4976335;28;20446;-73
2023/03/27 03:46:45;;;;;;;5.60;3.17;;;4.80;86.10;;;;;;4976585;28;20892;-73
2023/03/27 03:49:12;;;;;;;3.47;2.30;;;4.90;85.70;;;;;;4976519;28;20568;-72
2023/03/27 03:51:40;;;;;;;4.47;2.50;;;4.90;85.10;;;;;;4976643;28;20454;-72
2023/03/27 03:54:08;;;;;;;7.07;2.10;;;4.90;85.10;;;;;;4976394;28;20482;-73
2023/03/27 03:56:36;;;;;;;4.60;2.40;;;5.00;85.30;;;;;;4976397;28;20474;-73
2023/03/27 03:59:02;;;;;;;3.93;2.03;;;5.10;85.10;;;;;;4976581;28;20458;-72
2023/03/27 04:01:29;;;;;;;4.90;2.20;;;5.10;84.30;;;;;;4976383;28;20446;-73
2023/03/27 04:03:56;;;;;;;4.60;2.10;;;5.10;83.60;;;;;;4976577;28;20447;-73
2023/03/27 04:06:24;;;;;;;3.57;2.07;;;5.10;84.30;;;;;;4976499;28;20505;-74
2023/03/27 04:08:53;;;;;;;5.10;2.30;;;5.10;84.00;;;;;;4975750;28;20517;-72
2023/03/27 04:11:20;;;;;;;4.10;2.13;;;5.00;84.00;;;;;;4976332;28;20446;-73
2023/03/27 04:13:46;;;;;;;5.67;2.27;;;4.90;84.20;;;;;;4976127;28;20486;-73
2023/03/27 04:16:13;;;;;;;4.63;2.70;;;4.90;84.20;;;;;;4975967;28;20493;-73
2023/03/27 04:18:41;;;;;;;4.57;2.40;;;4.90;84.70;;;;;;4975726;28;20466;-74
2023/03/27 04:21:13;;;;;;;5.13;2.13;;;4.90;84.50;;;;;;4975953;28;20458;-73
2023/03/27 04:23:40;;;;;;;5.23;2.70;;;4.80;84.50;;;;;;4975868;28;20442;-73
2023/03/27 04:26:10;;;;;;;3.40;2.00;;;4.80;84.20;;;;;;4975456;28;20470;-74
2023/03/27 04:28:38;;;;;;;3.10;2.00;;;4.70;84.20;;;;;;4975533;28;20928;-73
2023/03/27 04:31:07;;;;;;;7.10;2.57;;;4.80;84.70;;;;;;4975736;28;20479;-73
2023/03/27 04:33:38;;;;;;;4.50;1.87;;;4.70;84.10;;;;;;4975307;28;21013;-73
2023/03/27 04:36:06;;;;;;;4.70;2.20;;;4.60;83.60;;;;;;4975656;28;20485;-74
2023/03/27 04:38:33;;;;;;;4.40;1.93;;;4.70;84.20;;;;;;4975601;28;20533;-73
2023/03/27 04:41:00;;;;;;;6.00;2.07;;;4.60;83.80;;;;;;4975646;28;20460;-72
2023/03/27 04:43:28;;;;;;;7.87;2.50;;;4.60;83.40;;;;;;4975494;28;20816;-73
2023/03/27 04:45:55;;;;;;;3.60;2.00;;;4.60;83.90;;;;;;4975376;28;20474;-73
2023/03/27 04:48:22;;;;;;;4.63;2.07;;;4.50;83.30;;;;;;4975437;28;20456;-73
2023/03/27 04:50:49;;;;;;;4.60;2.30;;;4.40;82.60;;;;;;4975098;28;20857;-73
2023/03/27 04:53:15;;;;;;;6.23;2.50;;;4.30;83.20;;;;;;4974980;28;20580;-73
2023/03/27 04:55:42;;;;;;;5.43;2.90;;;4.30;82.90;;;;;;4975563;28;20470;-73
2023/03/27 04:58:11;;;;;;;4.67;2.33;;;4.20;82.90;;;;;;4975268;28;20469;-73
2023/03/27 05:00:39;;;;;;;6.10;3.20;;;4.30;83.50;;;;;;4974933;28;20959;-73
2023/03/27 05:03:07;;;;;;;3.40;1.83;;;4.20;82.90;;;;;;4975405;28;20446;-73
2023/03/27 05:05:34;;;;;;;4.17;2.20;;;4.20;82.90;;;;;;4974938;28;21010;-73
2023/03/27 05:08:01;;;;;;;5.97;2.20;;;4.20;82.10;;;;;;4975116;28;20521;-73
2023/03/27 05:10:28;;;;;;;4.73;3.70;;;4.10;81.00;;;;;;4975097;28;20454;-73
2023/03/27 05:12:55;;;;;;;4.20;2.10;;;4.10;82.00;;;;;;4974915;28;20458;-73
2023/03/27 05:15:21;;;;;;;6.03;2.33;;;4.20;81.90;;;;;;4974754;28;20540;-72
2023/03/27 05:17:53;;;;;;;5.83;1.97;;;4.30;81.00;;;;;;4974828;28;20439;-73
2023/03/27 05:20:20;;;;;;;5.53;2.30;;;4.20;81.00;;;;;;4974916;28;20429;-72
2023/03/27 05:22:48;;;;;;;5.13;2.00;;;4.10;80.50;;;;;;4974842;28;20446;-72
2023/03/27 05:25:14;;;;;;;3.47;1.90;;;4.00;80.50;;;;;;4974762;28;20521;-72
2023/03/27 05:27:45;;;;;;;4.20;2.07;;;3.90;80.90;;;;;;4974785;28;20450;-72
2023/03/27 05:30:13;;;;;;;4.70;2.27;;;3.90;81.20;;;;;;4974877;28;20430;-72
2023/03/27 05:32:39;;;;;;;5.67;2.10;;;4.00;81.70;;;;;;4974737;28;20874;-72
2023/03/27 05:35:10;;;;;;;5.13;2.37;;;3.90;81.00;;;;;;4974611;28;20482;-72
2023/03/27 05:37:37;;;;;;;3.77;2.20;;;3.90;80.80;;;;;;4975221;28;20447;-73
2023/03/27 05:40:05;;;;;;;3.43;2.37;;;3.90;80.70;;;;;;4974655;28;20461;-72
2023/03/27 05:42:32;;;;;;;4.00;2.40;;;4.00;80.70;;;;;;4974599;28;20542;-73
2023/03/27 05:44:59;;;;;;;3.67;2.20;;;4.00;80.90;;;;;;4974278;28;20450;-72
2023/03/27 05:47:25;;;;;;;5.70;2.03;;;3.90;80.60;;;;;;4974614;28;20446;-73
2023/03/27 05:49:52;;;;;;;6.13;1.73;;;3.90;79.50;;;;;;4974275;28;20461;-72
2023/03/27 05:52:20;;;;;;;3.40;2.17;;;3.90;80.30;;;;;;4974526;28;20501;-73
2023/03/27 05:54:47;;;;;;;4.43;2.27;;;4.00;80.60;;;;;;4974406;28;20477;-72
2023/03/27 05:57:13;;;;;;;4.40;1.60;;;3.90;79.90;;;;;;4974363;28;20481;-72
2023/03/27 05:59:40;;;;;;;4.60;1.60;;;3.80;80.20;;;;;;4974432;28;20446;-73
2023/03/27 06:02:10;;;;;;;3.67;1.90;;;3.90;79.80;;;;;;4974396;28;20491;-72
2023/03/27 06:04:37;;;;;;;5.90;1.83;;;4.00;80.40;;;;;;4974612;28;20450;-72
2023/03/27 06:07:03;;;;;;;3.77;1.97;;;3.80;79.20;;;;;;4974321;28;20478;-72
2023/03/27 06:09:31;;;;;;;4.00;2.07;;;3.80;79.90;;;;;;4974390;28;20461;-72
2023/03/27 06:11:58;;;;;;;2.90;1.73;;;3.80;79.90;;;;;;4974359;28;20450;-72
2023/03/27 06:14:25;;;;;;;6.30;2.13;;;3.80;79.90;;;;;;4974245;28;20512;-72
2023/03/27 06:16:52;;;;;;;5.07;1.37;;;3.80;80.10;;;;;;4973934;28;20552;-72
2023/03/27 06:19:18;;;;;;;4.07;2.30;;;3.80;79.40;;;;;;4974246;28;20461;-71
2023/03/27 06:21:45;;;;;;;2.90;1.77;;;3.80;79.90;;;;;;4974306;28;20450;-72
2023/03/27 06:24:12;;;;;;;4.37;1.90;;;3.90;80.20;;;;;;4974029;28;20466;-73
2023/03/27 06:26:40;;;;;;;5.03;1.80;;;3.90;79.90;;;;;;4974589;28;20481;-72
2023/03/27 06:29:07;;;;;;;3.53;1.67;;;3.90;79.70;;;;;;4973889;28;20533;-73
2023/03/27 06:31:34;;;;;;;5.90;2.50;;;3.80;79.70;;;;;;4976555;28;20810;-72
2023/03/27 06:34:01;;;;;;;4.33;1.50;;;3.80;79.40;;;;;;4978253;28;20490;-72
2023/03/27 06:36:28;;;;;;;4.57;1.90;;;3.70;79.20;;;;;;4977930;28;20521;-72
2023/03/27 06:38:55;;;;;;;4.47;2.00;;;3.70;79.00;;;;;;4977946;28;20458;-71
2023/03/27 06:41:22;;;;;;;5.63;2.13;;;3.70;79.20;;;;;;4977783;28;20454;-71
2023/03/27 06:43:50;;;;;;;6.20;2.10;;;3.70;79.40;;;;;;4977951;28;20460;-72
2023/03/27 06:46:17;;;;;;;3.37;1.97;;;3.80;79.30;;;;;;4977665;28;20474;-72
2023/03/27 06:48:43;;;;;;;7.27;1.83;;;4.10;79.60;;;;;;4977719;28;20462;-72
2023/03/27 06:51:10;;;;;;;3.60;2.03;;;4.20;79.10;;;;;;4977697;28;20826;-72
2023/03/27 06:53:37;;;;;;;5.30;1.77;;;4.50;77.20;;;;;;4977751;28;20482;-71
2023/03/27 06:56:04;;;;;;;4.60;2.03;;;4.70;76.00;;;;;;4977459;28;20469;-72
2023/03/27 06:58:31;;;;;;;5.50;1.63;;;4.80;75.00;;;;;;4977499;28;20537;-72
2023/03/27 07:00:59;;;;;;;4.00;1.50;;;4.60;74.60;;;;;;4977423;28;20545;-72
2023/03/27 07:03:26;;;;;;;4.60;1.80;;;4.50;75.50;;;;;;4977374;28;20450;-71
2023/03/27 07:05:52;;;;;;;2.77;1.60;;;4.40;75.60;;;;;;4977278;28;20513;-71
2023/03/27 07:08:19;;;;;;;3.17;1.90;;;4.40;75.90;;;;;;4978083;28;20912;-71
2023/03/27 07:10:46;;;;;;;3.00;1.70;;;4.30;76.10;;;;;;4977301;28;20508;-71
2023/03/27 07:13:14;;;;;;;5.23;3.40;;;4.30;76.00;;;;;;4976785;28;21023;-74
2023/03/27 07:15:41;;;;;;;6.00;1.67;;;4.40;80.60;;;;;;4976726;28;21002;-72
2023/03/27 07:18:10;;;;;;;3.40;1.63;;;4.50;77.60;;;;;;4977089;28;21003;-71
2023/03/27 07:20:37;;;;;;;5.03;1.50;;;4.50;76.10;;;;;;4977230;28;20450;-71
2023/03/27 07:23:04;;;;;;;3.73;1.47;;;4.60;75.90;;;;;;4977192;28;20472;-72
2023/03/27 07:25:36;;;;;;;4.20;1.50;;;5.00;75.60;;;;;;4976972;28;20474;-71
2023/03/27 07:28:04;;;;;;;4.00;1.90;;;5.50;74.80;;;;;;4977024;28;20927;-72
2023/03/27 07:30:31;;;;;;;4.27;1.87;;;5.80;72.10;;;;;;4976767;28;20803;-72
2023/03/27 07:32:57;;;;;;;3.43;1.70;;;5.80;72.60;;;;;;4977004;28;20453;-72
2023/03/27 07:35:26;;;;;;;4.40;1.60;;;6.00;71.60;;;;;;4976872;28;20593;-72
2023/03/27 07:37:53;;;;;;;3.07;1.47;;;6.30;71.40;;;;;;4977074;28;20859;-72
2023/03/27 07:40:21;;;;;;;4.93;1.73;;;6.40;69.60;;;;;;4976423;28;20898;-72
2023/03/27 07:42:49;;;;;;;4.93;2.07;;;6.40;69.80;;;;;;4975020;28;20566;-71
2023/03/27 07:45:16;;;;;;;4.67;1.90;;;6.50;69.80;;;;;;4976515;28;20485;-71
2023/03/27 07:47:44;;;;;;;3.37;1.53;;;6.10;69.10;;;;;;4976567;28;20451;-72
2023/03/27 07:50:13;;;;;;;3.53;1.50;;;5.90;71.10;;;;;;4976461;28;20461;-72
2023/03/27 07:52:43;;;;;;;2.90;1.43;;;6.00;71.80;;;;;;4976443;28;20494;-72
2023/03/27 07:55:13;;;;;;;4.13;2.17;;;6.10;71.40;;;;;;4976323;28;20478;-72
2023/03/27 07:57:40;;;;;;;5.63;3.20;;;5.90;70.50;;;;;;4976362;28;20462;-72
2023/03/27 08:00:10;;;;;;;3.40;2.00;;;5.70;70.90;;;;;;4975985;28;21011;-72
2023/03/27 08:02:38;;;;;;;4.67;2.50;;;5.60;70.60;;;;;;4976021;28;20974;-74
2023/03/27 08:05:06;;;;;;;4.67;2.37;;;5.60;74.50;;;;;;4976305;28;20446;-71
2023/03/27 08:07:33;;;;;;;5.17;2.77;;;5.60;72.10;;;;;;4975860;28;20542;-72
2023/03/27 08:10:01;;;;;;;5.27;1.70;;;5.50;70.90;;;;;;4976118;28;20486;-72
2023/03/27 08:12:28;;;;;;;2.77;1.57;;;5.50;70.60;;;;;;4975977;28;20459;-72
2023/03/27 08:14:55;;;;;;;3.70;1.53;;;5.60;71.70;;;;;;4975824;28;20489;-71
2023/03/27 08:17:21;;;;;;;2.73;1.40;;;5.90;71.40;;;;;;4975982;28;20457;-71
2023/03/27 08:19:48;;;;;;;3.80;1.80;;;6.10;69.40;;;;;;4975963;28;20455;-71
2023/03/27 08:22:15;;;;;;;4.33;1.97;;;6.20;69.50;;;;;;4976708;28;20524;-71
2023/03/27 08:24:42;;;;;;;2.90;1.40;;;6.20;67.10;;;;;;4975820;28;20926;-72
2023/03/27 08:27:11;;;;;;;3.50;1.70;;;6.30;67.10;;;;;;4975723;28;20474;-71
2023/03/27 08:29:37;;;;;;;3.50;1.40;;;6.30;66.00;;;;;;4975805;28;20482;-72
2023/03/27 08:32:05;;;;;;;5.57;2.00;;;6.60;65.90;;;;;;4975732;28;20453;-71
2023/03/27 08:34:32;;;;;;;3.27;1.20;;;6.60;66.10;;;;;;4975650;28;20529;-72
2023/03/27 08:36:59;;;;;;;3.27;1.43;;;6.80;65.10;;;;;;4975576;28;20474;-72
2023/03/27 08:39:29;;;;;;;3.90;1.47;;;7.20;66.90;;;;;;4975613;28;20450;-73
2023/03/27 08:41:58;;;;;;;3.23;1.60;;;7.50;65.80;;;;;;4975604;28;20466;-72
2023/03/27 08:44:29;;;;;;;3.10;1.50;;;7.60;63.30;;;;;;4975782;28;20446;-71
2023/03/27 08:47:00;;;;;;;4.90;1.80;;;7.70;62.00;;;;;;4976355;28;20565;-71
2023/03/27 08:49:30;;;;;;;2.60;1.37;;;7.70;62.40;;;;;;4975553;28;20470;-71
2023/03/27 08:51:59;;;;;;;3.13;1.27;;;7.90;63.60;;;;;;4975431;28;20447;-71
2023/03/27 08:54:28;;;;;;;2.80;1.17;;;7.90;62.20;;;;;;4974613;28;20839;-72
2023/03/27 08:56:55;;;;;;;3.87;1.57;;;7.90;60.70;;;;;;4975132;28;20479;-71
2023/03/27 08:59:25;;;;;;;5.00;1.63;;;8.10;62.50;;;;;;4974947;28;20948;-72
2023/03/27 09:02:03;;;;;;;3.67;1.33;;;8.30;61.90;;;;;;4975152;28;20458;-72
2023/03/27 09:04:40;;;;;;;4.03;1.33;;;8.30;60.60;;;;;;4975375;28;20438;-72
2023/03/27 09:07:10;;;;;;;4.87;1.47;;;8.20;60.70;;;;;;4975250;28;20556;-72
2023/03/27 09:09:46;;;;;;;4.10;1.20;;;7.90;60.70;;;;;;4975352;28;20501;-73
2023/03/27 09:12:25;;;;;;;2.50;1.10;;;7.90;60.30;;;;;;4975266;28;20857;-73
2023/03/27 09:14:56;;;;;;;3.17;1.27;;;7.90;60.50;;;;;;4975110;28;20582;-73
2023/03/27 09:17:28;;;;;;;4.07;1.50;;;7.90;62.70;;;;;;4999297;23;20490;-68
2023/03/27 09:20:00;;;;;;;3.83;1.40;;;8.10;61.90;;;;;;4974986;28;20434;-68
2023/03/27 09:22:30;;;;;;;3.73;1.47;;;8.00;62.10;;;;;;4975141;28;20435;-68
2023/03/27 09:25:02;;;;;;;4.30;1.50;;;8.10;59.60;;;;;;4975081;28;20468;-68
2023/03/27 09:27:33;;;;;;;5.20;1.90;;;7.60;59.50;;;;;;4974817;28;20470;-69
2023/03/27 09:30:18;;;;;;;3.20;1.30;;;7.60;60.30;;;;;;4974982;28;20494;-68
2023/03/27 09:32:49;;;;;;;4.50;1.60;;;7.70;61.90;;;;;;4975108;28;20521;-69
2023/03/27 09:35:17;;;;;;;3.70;1.60;;;8.00;61.10;;;;;;4974600;28;20895;-69
2023/03/27 09:37:45;;;;;;;4.07;1.50;;;8.10;60.60;;;;;;4974835;28;20497;-70
2023/03/27 09:40:23;;;;;;;3.00;1.50;;;8.20;60.10;;;;;;4974686;28;20508;-69
2023/03/27 09:42:51;;;;;;;2.83;1.33;;;8.10;61.30;;;;;;4974590;28;20473;-68
2023/03/27 09:45:19;;;;;;;3.13;1.47;;;8.00;59.40;;;;;;4974530;28;20544;-69
2023/03/27 09:47:57;;;;;;;2.93;1.30;;;8.10;60.10;;;;;;4974891;28;20454;-68
2023/03/27 09:50:29;;;;;;;3.50;1.43;;;8.10;61.00;;;;;;4974627;28;20860;-69
2023/03/27 09:53:08;;;;;;;3.30;1.50;;;8.20;62.80;;;;;;4974450;28;20857;-68
2023/03/27 09:55:44;;;;;;;5.77;1.70;;;8.10;59.40;;;;;;4974386;28;20505;-70
2023/03/27 09:58:14;;;;;;;2.83;1.27;;;8.30;58.80;;;;;;4974545;28;20455;-69
2023/03/27 10:00:41;;;;;;;2.87;1.30;;;8.40;60.00;;;;;;4974751;28;20489;-69
2023/03/27 10:03:16;;;;;;;5.03;1.40;;;8.50;59.00;;;;;;4974561;28;20461;-70
2023/03/27 10:05:43;;;;;;;2.93;1.13;;;8.60;59.60;;;;;;4975954;28;20470;-68
2023/03/27 10:08:39;;;;;;;4.63;1.40;;;8.60;56.10;;;;;;4978468;28;20445;-68
2023/03/27 10:11:07;;;;;;;3.47;1.30;;;8.50;58.70;;;;;;4978420;28;20838;-69
2023/03/27 10:13:35;;;;;;;3.70;1.50;;;8.60;58.50;;;;;;4978345;28;20518;-69
2023/03/27 10:16:04;;;;;;;2.80;1.20;;;8.60;58.10;;;;;;4977810;28;20883;-69
2023/03/27 10:18:35;;;;;;;5.13;1.50;;;8.70;57.30;;;;;;4978273;28;20963;-66
2023/03/27 10:21:09;;;;;;;3.27;0.97;;;8.80;56.00;;;;;;4979075;28;20529;-68
2023/03/27 10:23:41;;;;;;;3.80;1.37;;;8.60;54.90;;;;;;4978755;28;20859;-68
2023/03/27 10:26:12;;;;;;;3.43;1.10;;;8.70;56.10;;;;;;4978289;28;20979;-70
2023/03/27 10:28:44;;;;;;;2.67;1.00;;;8.90;56.70;;;;;;4978421;28;20803;-68
2023/03/27 10:31:26;;;;;;;3.87;1.80;;;8.90;54.60;;;;;;4978930;28;20438;-68
2023/03/27 10:33:55;;;;;;;2.30;1.17;;;8.90;54.70;;;;;;4979073;28;20489;-68
2023/03/27 10:36:23;;;;;;;2.70;1.23;;;8.70;54.60;;;;;;4978330;28;20489;-68
2023/03/27 10:38:55;;;;;;;2.80;1.00;;;8.90;54.60;;;;;;4978775;28;20449;-68
2023/03/27 10:41:23;;;;;;;6.33;1.13;;;8.90;54.30;;;;;;4978738;28;20430;-69
2023/03/27 10:43:50;;;;;;;2.70;1.10;;;8.80;53.20;;;;;;4978244;28;20458;-69
2023/03/27 10:46:20;;;;;;;2.50;1.10;;;8.80;52.70;;;;;;4978443;28;20470;-68
2023/03/27 10:48:51;;;;;;;2.63;1.20;;;8.90;52.00;;;;;;4978192;28;20465;-70
2023/03/27 10:51:33;;;;;;;2.63;1.20;;;9.00;52.70;;;;;;4978303;28;20470;-68
2023/03/27 10:54:06;;;;;;;3.17;1.50;;;8.90;53.90;;;;;;4978421;28;20865;-67
2023/03/27 10:56:42;;;;;;;3.37;1.10;;;8.70;53.90;;;;;;4979864;28;20920;-69
2023/03/27 10:59:15;;;;;;;2.23;0.90;;;8.80;53.00;;;;;;4978050;28;20508;-71
2023/03/27 11:01:46;;;;;;;3.20;1.20;;;9.10;52.80;;;;;;4977915;28;20442;-70
2023/03/27 11:04:19;;;;;;;3.70;1.53;;;9.10;53.40;;;;;;4978616;28;20441;-68
2023/03/27 11:06:51;;;;;;;3.40;1.30;;;9.00;55.00;;;;;;4977372;28;20466;-68
2023/03/27 11:09:23;;;;;;;3.17;1.20;;;9.20;54.10;;;;;;4977846;28;20445;-68
2023/03/27 11:11:54;;;;;;;2.80;1.40;;;9.20;54.30;;;;;;4977492;28;20847;-68
2023/03/27 11:14:24;;;;;;;3.63;1.40;;;9.10;53.40;;;;;;4977392;28;20427;-68
2023/03/27 11:16:55;;;;;;;3.30;1.37;;;9.30;53.30;;;;;;4976539;28;20496;-68
2023/03/27 11:19:32;;;;;;;2.67;1.43;;;9.40;53.50;;;;;;4976912;28;20923;-68
2023/03/27 11:22:06;;;;;;;3.53;1.20;;;9.40;51.40;;;;;;4981127;28;20439;-69
2023/03/27 11:24:38;;;;;;;2.00;0.80;;;9.40;50.80;;;;;;4981746;28;20443;-69
2023/03/27 11:27:12;;;;;;;2.70;1.20;;;9.50;51.00;;;;;;4983709;28;20493;-71
2023/03/27 11:29:47;;;;;;;3.90;1.70;;;9.70;50.60;;;;;;4983892;28;20481;-70
2023/03/27 11:32:22;;;;;;;2.20;1.07;;;9.80;51.00;;;;;;4984462;28;20874;-69
2023/03/27 11:34:56;;;;;;;3.30;1.33;;;9.90;50.10;;;;;;4978277;28;20445;-69
2023/03/27 11:37:33;;;;;;;5.00;1.13;;;9.80;50.40;;;;;;4976783;28;20466;-69
2023/03/27 11:40:05;;;;;;;2.57;1.37;;;9.80;51.10;;;;;;4976865;28;20489;-70
2023/03/27 11:42:35;;;;;;;2.53;1.07;;;9.90;50.10;;;;;;4976798;28;20442;-69
2023/03/27 11:45:06;;;;;;;3.10;1.00;;;10.20;49.30;;;;;;4977105;28;20448;-69
2023/03/27 11:47:46;;;;;;;2.87;1.20;;;10.60;48.30;;;;;;4976801;28;20909;-69
2023/03/27 11:50:25;;;;;;;2.17;1.10;;;10.50;47.90;;;;;;4976726;28;20493;-69
2023/03/27 11:53:18;;;;;;;3.27;1.33;;;10.00;48.30;;;;;;4976644;28;20435;-69
2023/03/27 11:56:04;;;;;;;2.30;0.90;;;9.60;50.70;;;;;;4976792;28;21062;-70
2023/03/27 11:58:34;;;;;;;2.77;1.33;;;9.80;51.90;;;;;;4978716;28;20434;-70
2023/03/27 12:01:11;;;;;;;2.73;1.17;;;10.00;49.60;;;;;;4977457;28;20861;-68
2023/03/27 12:03:58;;;;;;;2.93;1.20;;;10.10;48.00;;;;;;4976639;28;20437;-68
2023/03/27 12:06:32;;;;;;;2.90;1.17;;;10.30;50.00;;;;;;4976318;28;20802;-68
2023/03/27 12:09:12;;;;;;;3.43;1.10;;;10.30;49.20;;;;;;4976417;28;20449;-69
2023/03/27 12:11:42;;;;;;;3.67;1.13;;;10.20;49.50;;;;;;4975990;28;20861;-70
2023/03/27 12:14:27;;;;;;;2.73;1.13;;;9.90;50.70;;;;;;4976030;28;20833;-68
2023/03/27 12:17:14;;;;;;;3.10;1.17;;;9.80;51.90;;;;;;4975993;28;20995;-69
2023/03/27 12:19:56;;;;;;;2.57;1.40;;;9.80;48.20;;;;;;4976227;28;20434;-70
2023/03/27 12:22:34;;;;;;;4.77;1.30;;;9.90;48.60;;;;;;4976996;28;20439;-68
2023/03/27 12:25:48;;;;;;;2.20;0.90;;;10.40;49.70;;;;;;4976012;28;20489;-68
2023/03/27 12:28:29;;;;;;;2.87;1.17;;;10.70;49.10;;;;;;4978793;28;20439;-70
2023/03/27 12:31:03;;;;;;;3.60;1.20;;;10.70;48.70;;;;;;4981982;28;20494;-71
2023/03/27 12:33:41;;;;;;;2.37;1.20;;;10.80;46.90;;;;;;4981726;28;20505;-71
2023/03/27 12:36:14;;;;;;;2.70;1.20;;;10.90;46.70;;;;;;4981066;28;20482;-72
2023/03/27 12:38:43;;;;;;;2.57;1.10;;;11.10;47.60;;;;;;4981553;28;20848;-70
2023/03/27 12:41:22;;;;;;;2.40;0.83;;;11.50;48.80;;;;;;4981848;28;20454;-72
2023/03/27 12:43:54;;;;;;;2.70;1.20;;;11.50;46.00;;;;;;4982293;28;20493;-71
2023/03/27 12:46:37;;;;;;;4.20;1.10;;;11.40;46.00;;;;;;4981685;28;20471;-69
2023/03/27 12:49:44;;;;;;;2.90;1.10;;;11.10;46.40;;;;;;4982798;28;20438;-70
2023/03/27 12:52:11;;;;;;;2.13;0.87;;;10.80;46.40;;;;;;4981050;28;20450;-70
2023/03/27 12:54:39;;;;;;;2.57;0.97;;;10.70;48.30;;;;;;4980847;28;20450;-68
2023/03/27 12:57:14;;;;;;;3.03;1.30;;;10.60;49.20;;;;;;4981947;28;20498;-70
2023/03/27 12:59:50;;;;;;;2.40;1.20;;;10.60;49.20;;;;;;4982694;28;20449;-68
2023/03/27 13:02:55;;;;;;;2.40;1.10;;;10.90;49.30;;;;;;4981592;28;20437;-71
2023/03/27 13:06:00;;;;;;;3.07;1.00;;;11.20;49.20;;;;;;4981570;28;20426;-70
2023/03/27 13:08:44;;;;;;;2.63;1.20;;;11.40;49.30;;;;;;4970153;28;20457;-70
2023/03/27 13:11:27;;;;;;;2.60;1.40;;;11.80;48.70;;;;;;4980804;28;20430;-69
2023/03/27 13:14:30;;;;;;;3.13;1.40;;;11.80;47.10;;;;;;4981642;28;20442;-70
2023/03/27 13:17:06;;;;;;;3.47;1.27;;;12.00;47.90;;;;;;4980179;28;20490;-70
2023/03/27 13:19:50;;;;;;;2.20;1.00;;;11.90;48.70;;;;;;4981171;28;20450;-70
2023/03/27 13:22:26;;;;;;;2.40;1.20;;;11.70;47.10;;;;;;4981478;28;20445;-69
2023/03/27 13:25:20;;;;;;;2.77;1.10;;;11.80;47.20;;;;;;4981414;28;20481;-70
2023/03/27 13:28:07;;;;;;;3.17;1.03;;;11.80;47.30;;;;;;4977739;28;20501;-70
2023/03/27 13:30:46;;;;;;;2.40;1.00;;;11.60;47.70;;;;;;4980943;28;20465;-70
2023/03/27 13:33:17;;;;;;;3.33;1.00;;;11.80;47.90;;;;;;4981196;28;20446;-70
2023/03/27 13:36:01;;;;;;;4.20;1.13;;;11.80;46.70;;;;;;4981163;28;20478;-69
2023/03/27 13:39:08;;;;;;;2.63;1.30;;;11.40;46.00;;;;;;4980783;28;20438;-70
2023/03/27 13:41:54;;;;;;;3.80;1.50;;;11.10;46.70;;;;;;4980598;28;20458;-69
2023/03/27 13:44:28;;;;;;;2.13;1.00;;;10.70;48.30;;;;;;4981245;28;20431;-69
2023/03/27 13:47:08;;;;;;;2.67;0.90;;;10.60;49.90;;;;;;4982512;28;20469;-70
2023/03/27 13:49:57;;;;;;;3.50;1.80;;;10.30;50.70;;;;;;4980947;28;20446;-69
2023/03/27 13:53:06;;;;;;;2.10;0.83;;;10.10;52.30;;;;;;4979687;28;20442;-69
2023/03/27 13:56:05;;;;;;;2.97;1.20;;;9.70;55.70;;;;;;4980468;28;20500;-71
2023/03/27 13:58:54;;;;;;;3.60;1.30;;;9.30;58.90;;;;;;4980471;28;20438;-70
2023/03/27 14:01:32;;;;;;;2.67;1.07;;;9.00;62.20;;;;;;4981040;28;21010;-70
2023/03/27 14:04:28;;;;;;;3.47;1.30;;;8.50;66.30;;;;;;4982415;28;20510;-69
2023/03/27 14:07:35;;;;;;;4.00;1.60;;;7.90;70.20;;;;;;4981908;28;20473;-68
2023/03/27 14:10:27;;;;;;;2.67;1.20;;;7.70;72.40;;;;;;4981231;28;20457;-68
2023/03/27 14:13:03;;;;;;;3.47;1.80;;;7.70;73.30;;;;;;4981357;28;20427;-68
2023/03/27 14:15:55;;;;;;;4.03;1.40;;;7.80;74.20;;;;;;4981626;28;20437;-69
2023/03/27 14:18:47;;;;;;;3.30;1.70;;;7.90;74.90;;;;;;4980240;28;20466;-70
2023/03/27 14:21:17;;;;;;;2.63;1.27;;;8.10;74.70;;;;;;4978431;28;20461;-67
2023/03/27 14:23:50;;;;;;;2.97;1.10;;;8.30;74.50;;;;;;4981244;28;20480;-69
2023/03/27 14:26:20;;;;;;;2.23;1.10;;;8.50;72.00;;;;;;4982044;28;20463;-69
2023/03/27 14:28:50;;;;;;;2.40;1.10;;;9.10;72.60;;;;;;4982951;28;20450;-70
2023/03/27 14:31:18;;;;;;;2.57;1.10;;;9.40;69.30;;;;;;4981719;28;20481;-68
2023/03/27 14:33:50;;;;;;;5.00;1.27;;;9.20;68.50;;;;;;4981160;28;21013;-69
2023/03/27 14:36:22;;;;;;;2.90;1.13;;;9.30;68.80;;;;;;4980938;28;20636;-70
2023/03/27 14:38:48;;;;;;;2.60;1.00;;;9.80;69.10;;;;;;4975416;28;20619;-69
2023/03/27 14:41:20;;;;;;;2.50;1.20;;;10.90;65.50;;;;;;4974274;28;21011;-69
2023/03/27 14:43:48;;;;;;;3.60;1.50;;;11.80;61.90;;;;;;4974568;28;20437;-69
2023/03/27 14:46:16;;;;;;;2.97;1.10;;;12.00;60.30;;;;;;4974201;28;20525;-69
2023/03/27 14:48:44;;;;;;;2.40;1.10;;;11.80;61.10;;;;;;4974385;28;20504;-68
2023/03/27 14:51:15;;;;;;;2.67;0.93;;;11.40;62.40;;;;;;4974537;28;20517;-70
2023/03/27 14:53:48;;;;;;;2.63;1.13;;;11.40;62.10;;;;;;4977465;28;20944;-69
2023/03/27 14:56:28;;;;;;;2.70;1.00;;;11.40;60.10;;;;;;4977602;28;20482;-68
2023/03/27 14:58:58;;;;;;;2.70;1.13;;;10.90;61.70;;;;;;4977556;28;20493;-69
2023/03/27 15:01:25;;;;;;;2.20;1.00;;;10.40;62.10;;;;;;4977819;28;20484;-68
2023/03/27 15:03:53;;;;;;;2.70;1.30;;;10.10;63.40;;;;;;4977583;28;20454;-69
2023/03/27 15:06:25;;;;;;;2.70;1.03;;;10.90;62.10;;;;;;4977574;28;20462;-69
2023/03/27 15:08:57;;;;;;;2.40;1.10;;;12.50;56.20;;;;;;4977447;28;20815;-69
2023/03/27 15:11:26;;;;;;;2.20;0.90;;;14.30;53.10;;;;;;4977439;28;20489;-69
2023/03/27 15:13:52;;;;;;;2.50;1.00;;;15.60;49.60;;;;;;4977871;28;20458;-70
2023/03/27 15:16:23;;;;;;;3.60;1.20;;;17.00;47.80;;;;;;5033112;23;20490;-71
2023/03/27 15:19:03;;;;;;;2.50;1.07;;;18.10;44.10;;;;;;4977176;28;20485;-72
2023/03/27 15:21:37;;;;;;;3.60;1.30;;;17.60;45.20;;;;;;4977193;28;20437;-73
2023/03/27 15:24:09;;;;;;;2.77;1.20;;;16.80;45.60;;;;;;4977204;28;20448;-73
2023/03/27 15:26:36;;;;;;;2.20;0.90;;;15.80;48.00;;;;;;4977056;28;20517;-73
2023/03/27 15:29:07;;;;;;;3.60;0.93;;;14.40;48.90;;;;;;4977021;28;20450;-72
2023/03/27 15:31:36;;;;;;;2.60;1.07;;;13.60;51.10;;;;;;4977037;28;20445;-72
2023/03/27 15:34:07;;;;;;;2.80;1.47;;;13.00;52.10;;;;;;4977087;28;20592;-72
2023/03/27 15:36:37;;;;;;;5.17;1.23;;;11.70;54.40;;;;;;4976728;28;20907;-71
2023/03/27 15:39:07;;;;;;;2.27;1.17;;;11.10;56.30;;;;;;4976500;28;20824;-71
2023/03/27 15:41:41;;;;;;;2.60;1.30;;;10.60;57.80;;;;;;4976519;28;20991;-73
2023/03/27 15:44:12;;;;;;;2.77;1.67;;;10.30;57.90;;;;;;4976808;28;20514;-73
2023/03/27 15:46:47;;;;;;;4.03;3.33;;;10.20;58.50;;;;;;4976670;28;20470;-72
2023/03/27 15:49:23;;;;;;;2.20;1.20;;;10.10;58.80;;;;;;4976661;28;20528;-73
2023/03/27 15:51:50;;;;;;;2.40;0.90;;;9.60;59.00;;;;;;4976557;28;20497;-73
2023/03/27 15:54:27;;;;;;;2.10;0.90;;;9.30;58.90;;;;;;4976169;28;20874;-72
2023/03/27 15:56:54;;;;;;;2.93;1.00;;;8.90;60.90;;;;;;4976086;28;20934;-72
2023/03/27 15:59:23;;;;;;;3.13;1.20;;;8.80;62.70;;;;;;4976110;28;20853;-72
2023/03/27 16:01:52;;;;;;;2.20;1.00;;;8.50;64.00;;;;;;4976371;28;20537;-73
2023/03/27 16:04:21;;;;;;;2.27;1.10;;;8.30;65.80;;;;;;4975199;28;20450;-72
2023/03/27 16:06:50;;;;;;;2.30;1.00;;;7.90;68.20;;;;;;4976234;28;20470;-72
2023/03/27 16:09:25;;;;;;;2.63;1.27;;;7.60;70.60;;;;;;4976191;28;20530;-71
2023/03/27 16:11:54;;;;;;;2.20;1.10;;;7.40;72.50;;;;;;4975932;28;20430;-71
2023/03/27 16:14:29;;;;;;;3.40;3.03;;;7.50;73.50;;;;;;4976119;28;20454;-72
2023/03/27 16:17:17;;;;;;;3.20;1.20;;;7.40;74.10;;;;;;4975794;28;20497;-71
2023/03/27 16:19:50;;;;;;;2.40;1.10;;;7.20;74.80;;;;;;4976034;28;20509;-70
2023/03/27 16:22:19;;;;;;;3.10;1.53;;;7.20;75.20;;;;;;4976044;28;20434;-72
2023/03/27 16:24:47;;;;;;;2.97;1.60;;;7.00;75.40;;;;;;4975892;28;20450;-72